HSKO2: Arkansas River, Haskell, OK

                                SHEF ID:       HSKO2     Arkansas River near Haskell, OK
STATION TYPE:
Regulating: Stage = 18.00, Flow = 125429

PRECIP STAGE STAGE(2) RIV-FLOW BAT-LOAD
in ft ft cfs volt
Ccp-Rev Ccp-Rev Ccp-Rev Ccp-Rev Ccp-Rev
(America/Chicago)
02/07 00:00 0.00 4.15 4.23 3660 12.65
02/07 01:00 0.00 4.14 4.21 3637 12.65
02/07 02:00 0.00 4.10 4.17 3547 12.65
02/07 03:00 0.00 4.04 4.11 3413 12.57
02/07 04:00 0.00 3.97 4.05 3261 12.57
02/07 05:00 0.00 3.91 3.99 3134 12.57
02/07 06:00 0.00 3.85 3.94 3009 12.57
02/07 07:00 0.00 3.84 3.92 2989 12.49
02/07 08:00 0.00 3.90 3.96 3113 12.49
02/07 09:00 0.00 4.00 4.08 3326 13.53
02/07 10:00 0.00 4.12 4.19 3592 13.60
02/07 11:00 0.00 4.18 4.30 3729 13.60
02/07 12:00 0.00 4.26 4.39 3916 13.60
02/07 13:00 0.00 4.28 4.42 3963 13.60
02/07 14:00 0.00 4.29 4.42 3987 13.60
02/07 15:00 0.00 4.27 4.40 3939 13.60
02/07 16:00 0.00 4.20 4.36 3775 13.60
02/07 17:00 0.00 4.16 4.29 3683 13.05
02/07 18:00 0.00 4.12 4.26 3592 12.97
02/07 19:00 0.00 4.13 4.21 3614 12.81
02/07 20:00 0.00 4.10 4.17 3547 12.73
02/07 21:00 0.00 4.07 4.13 3480 12.73
02/07 22:00 0.00 4.04 4.11 3413 12.65
02/07 23:00 0.00 4.01 4.07 3348 12.65
Data processed at Sun 08Feb2026 05:13 GMT

NOTICE: If you are parsing this page

Please convert to using our Data API. Starting early 2026 we will be migrating to: https://water.usace.army.mil with modern pages rendered in JavaScript. When this migration completes you will no longer be able to scrape this page! CWMSDataAPI (CDA)

Timeseries IDs (TSIDs)

TSIDs used from left to right in the data table
HASK.Precip-Inc.Total.1Hour.1Hour.Ccp-Rev
HASK.Stage.Inst.1Hour.0.Ccp-Rev
HASK.Stage-Alt.Inst.1Hour.0.Ccp-Rev
HASK.Flow.Inst.1Hour.0.Ccp-Rev
HASK.Volt-Battery Load.Inst.1Hour.0.Ccp-Rev

                            

All information presented herein is the property of the government of the United States of America and may be revised or deleted at any time without prior notice. Dissemination of this information without the expressed written consent of the Public Affairs Office, Tulsa District U.S. Army Corps of Engineers is strictly prohibited. These data are gathered electronically and, as presented, have NOT undergone any form of quality control. These data are NOT guaranteed to be valid or correct.